Time;durP1;ratioP1;P1;durP2;ratioP2;P2;SDS_P1;SDS_P2;PMS_P1;PMS_P2;Temp;Humidity;BMP_temperature;BMP_pressure;BME280_temperature;BME280_humidity;BME280_pressure;Samples;Min_cycle;Max_cycle;Signal;HPM_P1;HPM_P2
2023/02/19 00:01:38;;;;;;;2.17;1.45;;;;;;;13.75;59.94;99793.00;4471376;32;20609;-91
2023/02/19 00:04:10;;;;;;;3.12;1.30;;;;;;;13.73;59.95;99789.59;4458256;32;20115;-91
2023/02/19 00:06:35;;;;;;;3.03;1.23;;;;;;;13.73;59.95;99789.59;4475777;31;20393;-92
2023/02/19 00:09:01;;;;;;;2.08;1.27;;;;;;;13.71;59.94;99786.16;4467629;31;20100;-90
2023/02/19 00:11:28;;;;;;;2.15;1.30;;;;;;;13.72;59.95;99789.63;4471216;32;20096;-89
2023/02/19 00:13:54;;;;;;;3.53;1.40;;;;;;;13.70;59.94;99791.47;4459020;31;20752;-89
2023/02/19 00:16:27;;;;;;;2.15;1.20;;;;;;;13.77;59.95;99785.91;4481452;32;20105;-90
2023/02/19 00:18:53;;;;;;;2.12;1.20;;;;;;;13.94;59.95;99789.53;4473596;31;20095;-92
2023/02/19 00:21:19;;;;;;;3.12;1.30;;;;;;;13.99;59.96;99791.03;4471389;32;20152;-87
2023/02/19 00:23:49;;;;;;;2.10;1.20;;;;;;;14.19;59.97;99792.72;4469075;31;20114;-90
2023/02/19 00:26:14;;;;;;;2.95;1.40;;;;;;;14.04;59.96;99799.53;4487557;31;20116;-91
2023/02/19 00:28:40;;;;;;;3.80;1.48;;;;;;;14.19;59.97;99792.72;4473005;31;20126;-90
2023/02/19 00:31:20;;;;;;;3.42;1.70;;;;;;;14.43;59.98;99789.03;4481461;32;20163;-90
2023/02/19 00:33:46;;;;;;;3.25;1.65;;;;;;;14.36;59.98;99792.78;4473576;32;20068;-89
2023/02/19 00:36:11;;;;;;;4.12;2.17;;;;;;;14.45;59.98;99777.63;4459898;32;20173;-89
2023/02/19 00:38:37;;;;;;;4.37;2.58;;;;;;;14.29;59.97;99790.53;4481667;32;20084;-90
2023/02/19 00:41:18;;;;;;;6.47;2.75;;;;;;;14.19;59.97;99782.25;4458119;32;20111;-89
2023/02/19 00:43:51;;;;;;;4.78;2.80;;;;;;;14.22;59.97;99779.53;4468591;31;20084;-90
2023/02/19 00:46:24;;;;;;;3.62;2.15;;;;;;;14.35;59.98;99783.25;4477414;31;20100;-89
2023/02/19 00:48:51;;;;;;;3.62;2.12;;;;;;;14.41;59.98;99784.72;4477749;32;20472;-90
2023/02/19 00:51:16;;;;;;;5.43;2.35;;;;;;;14.35;59.98;99782.41;4471674;31;20088;-90
2023/02/19 00:53:42;;;;;;;5.82;2.33;;;;;;;14.32;59.97;99782.53;4472319;32;20150;-91
2023/02/19 00:56:07;;;;;;;3.97;1.83;;;;;;;14.32;59.97;99787.78;4483692;31;20130;-91
2023/02/19 00:58:33;;;;;;;4.72;2.33;;;;;;;14.18;59.97;99777.94;4472919;32;20164;-91
2023/02/19 01:00:58;;;;;;;4.45;1.95;;;;;;;14.18;59.97;99775.31;4485324;32;20096;-90
2023/02/19 01:03:24;;;;;;;4.70;1.92;;;;;;;14.16;59.97;99773.69;4464986;31;20088;-90
2023/02/19 01:05:50;;;;;;;3.60;1.77;;;;;;;14.19;59.97;99782.25;4486518;31;20148;-89
2023/02/19 01:08:18;;;;;;;4.05;2.00;;;;;;;14.24;59.97;99789.91;4479977;32;20100;-89
2023/02/19 01:10:43;;;;;;;4.10;2.08;;;;;;;14.24;59.97;99782.06;4482105;31;20528;-92
2023/02/19 01:13:12;;;;;;;2.90;1.77;;;;;;;14.22;59.97;99776.06;4461725;32;20115;-91
2023/02/19 01:15:37;;;;;;;3.90;2.03;;;;;;;13.95;59.96;99776.38;4457910;31;20531;-88
2023/02/19 01:18:03;;;;;;;3.35;1.65;;;;;;;14.12;59.96;99779.06;4474757;32;20163;-89
2023/02/19 01:20:28;;;;;;;4.57;2.10;;;;;;;14.01;59.96;99789.19;4481342;31;20141;-88
2023/02/19 01:22:54;;;;;;;3.35;1.98;;;;;;;14.01;59.95;99783.97;4476546;31;20357;-89
2023/02/19 01:25:19;;;;;;;3.80;2.12;;;;;;;13.74;59.94;99780.81;4486086;31;20439;-88
2023/02/19 01:27:45;;;;;;;3.30;1.60;;;;;;;13.65;59.94;99781.22;4494595;31;20626;-88
2023/02/19 01:30:10;;;;;;;4.93;2.22;;;;;;;13.85;59.95;99777.72;4483925;31;20096;-88
2023/02/19 01:32:36;;;;;;;4.75;2.05;;;;;;;13.75;59.95;99773.81;4493392;31;20129;-89
2023/02/19 01:35:01;;;;;;;4.85;1.87;;;;;;;13.76;59.94;99767.69;4465265;32;20392;-87
2023/02/19 01:37:26;;;;;;;4.40;1.90;;;;;;;13.60;59.94;99762.25;4476069;31;20173;-88
2023/02/19 01:39:52;;;;;;;6.62;1.58;;;;;;;13.64;59.95;99765.59;4489882;31;20156;-88
2023/02/19 01:42:17;;;;;;;2.50;1.48;;;;;;;13.55;59.93;99759.00;4483346;32;20122;-89
2023/02/19 01:44:46;;;;;;;4.60;1.90;;;;;;;13.36;59.93;99755.50;4478483;32;20096;-88
2023/02/19 01:47:12;;;;;;;2.30;1.50;;;;;;;13.49;59.93;99761.91;4483233;32;20159;-88
2023/02/19 01:49:40;;;;;;;3.75;1.37;;;;;;;13.33;59.92;99753.00;4470873;31;20084;-90
2023/02/19 01:52:16;;;;;;;2.20;1.45;;;;;;;13.36;59.93;99752.88;4461600;32;20429;-91
2023/02/19 01:54:42;;;;;;;2.67;1.40;;;;;;;13.44;59.93;99751.63;4470607;31;20124;-90
2023/02/19 01:57:12;;;;;;;2.03;1.30;;;;;;;13.41;59.92;99743.91;4462909;32;20397;-90
2023/02/19 01:59:37;;;;;;;;;;;;;;;13.39;59.93;99744.91;4487238;31;20152;-90
2023/02/19 02:02:03;;;;;;;4.00;1.87;;;;;;;13.47;59.92;99750.63;4477897;32;20288;-88
2023/02/19 02:04:30;;;;;;;3.12;1.40;;;;;;;13.31;59.92;99752.22;4480753;31;20166;-90
2023/02/19 02:06:55;;;;;;;2.08;1.35;;;;;;;13.41;59.92;99758.75;4458258;32;20120;-91
2023/02/19 02:12:11;;;;;;;3.67;2.05;;;;;;;13.43;59.93;99760.38;4479034;32;20979;-88
2023/02/19 02:14:39;;;;;;;3.80;2.08;;;;;;;13.55;59.93;99747.69;4472879;32;20112;-90
2023/02/19 02:17:23;;;;;;;8.07;2.10;;;;;;;13.44;59.93;99748.16;4476884;32;20100;-88
2023/02/19 02:20:05;;;;;;;4.72;1.83;;;;;;;13.45;59.94;99744.63;4486322;32;20874;-90
2023/02/19 02:22:48;;;;;;;3.60;1.70;;;;;;;13.13;59.92;99752.06;4487771;32;20090;-88
2023/02/19 02:26:05;;;;;;;7.82;1.98;;;;;;;13.11;59.90;99750.44;4472887;31;20112;-88
2023/02/19 02:28:33;;;;;;;4.15;1.80;;;;;;;12.93;59.90;99746.81;4454231;31;20108;-88
2023/02/19 02:31:03;;;;;;;4.43;1.55;;;;;;;12.87;59.89;99749.69;4484860;32;20119;-89
2023/02/19 02:33:40;;;;;;;2.53;1.42;;;;;;;13.05;59.91;99748.94;4459110;31;20119;-91
2023/02/19 02:36:06;;;;;;;3.55;1.70;;;;;;;13.14;59.91;99755.53;4473157;32;20452;-92
2023/02/19 02:38:34;;;;;;;8.18;1.67;;;;;;;13.07;59.91;99754.09;4484636;31;20123;-90
2023/02/19 02:40:59;;;;;;;3.58;1.37;;;;;;;13.17;59.91;99750.16;4472456;32;20100;-91
2023/02/19 02:43:24;;;;;;;2.70;1.37;;;;;;;13.16;59.91;99754.53;4482841;31;20296;-89
2023/02/19 02:45:50;;;;;;;2.45;1.20;;;;;;;13.00;59.91;99740.41;4458969;32;20163;-89
2023/02/19 02:48:23;;;;;;;2.08;1.33;;;;;;;13.06;59.91;99740.19;4472005;31;20166;-90
2023/02/19 02:51:16;;;;;;;3.25;1.27;;;;;;;13.20;59.92;99743.06;4472370;32;20444;-90
2023/02/19 02:56:58;;;;;;;1.55;1.00;;;;;;;13.07;59.91;99756.72;4474002;31;20116;-88
2023/02/19 02:59:30;;;;;;;1.23;0.60;;;;;;;13.02;59.90;99754.28;4491542;31;20368;-92
2023/02/19 03:02:11;;;;;;;0.77;0.55;;;;;;;12.74;59.89;99754.56;4469458;32;20089;-93
2023/02/19 03:07:37;;;;;;;4.18;0.70;;;;;;;12.70;59.89;99747.75;4499015;31;20114;-92
2023/02/19 03:10:05;;;;;;;0.65;0.52;;;;;;;13.04;59.91;99734.16;4489616;31;20126;-91
2023/02/19 03:20:47;;;;;;;0.80;0.60;;;;;;;12.80;59.89;99738.66;4489865;31;20478;-88
2023/02/19 03:23:13;;;;;;;0.70;0.50;;;;;;;12.75;59.89;99734.50;4487065;31;20456;-89
2023/02/19 03:29:21;;;;;;;1.02;0.62;;;;;;;12.60;59.88;99747.28;4485310;31;20123;-90
2023/02/19 03:31:12;;;;;;;0.62;0.47;;;;;;;12.59;59.88;99745.59;4484274;32;20099;-90
2023/02/19 03:33:39;;;;;;;0.40;0.40;;;;;;;12.62;59.88;99735.94;4485561;31;20160;-91
2023/02/19 03:36:05;;;;;;;0.77;0.30;;;;;;;12.48;59.87;99745.16;4472425;31;20734;-90
2023/02/19 03:38:33;;;;;;;0.88;0.45;;;;;;;12.70;59.88;99755.59;4459980;32;20121;-90
2023/02/19 03:41:33;;;;;;;0.80;0.60;;;;;;;12.82;59.90;99760.34;4485702;31;20187;-92
2023/02/19 03:44:33;;;;;;;1.75;0.80;;;;;;;12.73;59.89;99746.78;4486937;32;20108;-91
2023/02/19 03:47:04;;;;;;;0.50;0.50;;;;;;;12.76;59.89;99736.22;4492796;31;20092;-90
2023/02/19 03:49:45;;;;;;;0.40;0.40;;;;;;;12.56;59.88;99744.88;4497924;31;20169;-90
2023/02/19 03:52:19;;;;;;;1.52;0.73;;;;;;;12.57;59.88;99744.81;4492354;31;20105;-89
2023/02/19 03:54:53;;;;;;;0.75;0.55;;;;;;;12.54;59.88;99742.34;4485938;31;20129;-90
2023/02/19 03:57:49;;;;;;;0.60;0.60;;;;;;;12.49;59.87;99749.47;4487535;31;20091;-93
2023/02/19 04:00:44;;;;;;;1.75;0.90;;;;;;;12.28;59.87;99743.34;4485762;31;20116;-89
2023/02/19 04:03:30;;;;;;;1.27;0.70;;;;;;;12.13;59.86;99748.31;4472894;32;20100;-90
2023/02/19 04:06:00;;;;;;;1.10;1.00;;;;;;;12.22;59.86;99751.41;4482906;31;20105;-91
2023/02/19 04:08:25;;;;;;;1.20;0.70;;;;;;;12.29;59.87;99749.41;4474561;31;20095;-90
2023/02/19 04:10:51;;;;;;;1.23;0.93;;;;;;;12.23;59.86;99752.25;4471566;31;20160;-90
2023/02/19 04:13:22;;;;;;;1.55;0.70;;;;;;;12.41;59.87;99745.47;4462870;32;20108;-89
2023/02/19 04:15:47;;;;;;;1.40;1.00;;;;;;;12.28;59.87;99751.16;4470489;31;20167;-89
2023/02/19 04:18:27;;;;;;;1.35;0.98;;;;;;;12.31;59.87;99746.75;4486737;31;20376;-89
2023/02/19 04:20:53;;;;;;;1.90;0.68;;;;;;;12.28;59.87;99751.16;4486949;31;20107;-89
2023/02/19 04:23:21;;;;;;;2.20;1.00;;;;;;;12.34;59.86;99760.53;4486901;31;20139;-88
2023/02/19 04:25:49;;;;;;;1.90;1.10;;;;;;;12.25;59.86;99766.94;4486879;31;20208;-89
2023/02/19 04:28:15;;;;;;;1.75;0.85;;;;;;;12.39;59.87;99758.59;4490522;31;20122;-91
2023/02/19 04:30:42;;;;;;;0.75;0.65;;;;;;;12.27;59.86;99767.72;4471201;32;20159;-89
2023/02/19 04:33:10;;;;;;;1.50;0.93;;;;;;;12.27;59.86;99766.88;4484555;32;20161;-91
2023/02/19 04:35:35;;;;;;;1.02;0.80;;;;;;;12.30;59.87;99771.97;4471718;32;20141;-89
2023/02/19 04:38:01;;;;;;;1.35;0.60;;;;;;;12.25;59.86;99771.31;4465176;32;20084;-90
2023/02/19 04:40:26;;;;;;;2.72;0.62;;;;;;;12.16;59.86;99774.28;4458745;32;20130;-90
2023/02/19 04:42:52;;;;;;;2.17;0.75;;;;;;;12.43;59.88;99774.97;4476852;32;20389;-91
2023/02/19 04:45:17;;;;;;;3.05;0.70;;;;;;;12.25;59.86;99774.78;4468717;32;20437;-92
2023/02/19 04:47:43;;;;;;;1.75;0.75;;;;;;;12.26;59.86;99778.22;4471820;32;20132;-93
2023/02/19 04:50:08;;;;;;;1.70;0.68;;;;;;;12.31;59.87;99775.47;4473454;31;20185;-91
2023/02/19 04:52:34;;;;;;;2.00;1.20;;;;;;;12.31;59.87;99772.87;4471495;32;20157;-90
2023/02/19 04:54:59;;;;;;;1.70;0.90;;;;;;;12.39;59.87;99782.09;4469127;32;20088;-91
2023/02/19 04:57:25;;;;;;;2.47;0.82;;;;;;;12.39;59.87;99769.03;4467412;31;20091;-90
2023/02/19 04:59:50;;;;;;;1.87;1.20;;;;;;;12.34;59.86;99760.53;4486678;31;20103;-90
2023/02/19 05:02:16;;;;;;;1.23;0.80;;;;;;;12.38;59.87;99775.16;4470964;32;20126;-90
2023/02/19 05:04:41;;;;;;;2.28;1.20;;;;;;;12.46;59.87;99767.03;4485969;31;20398;-90
2023/02/19 05:07:07;;;;;;;0.88;0.70;;;;;;;12.42;59.87;99773.28;4474865;31;20500;-91
2023/02/19 05:09:32;;;;;;;2.78;0.98;;;;;;;12.57;59.88;99763.09;4482608;31;20402;-89
2023/02/19 05:11:58;;;;;;;2.67;1.27;;;;;;;12.55;59.88;99764.06;4464834;32;20160;-91
2023/02/19 05:14:23;;;;;;;1.12;0.82;;;;;;;12.66;59.89;99756.63;4468475;32;20140;-91
2023/02/19 05:16:49;;;;;;;2.08;0.98;;;;;;;12.75;59.89;99755.41;4471155;32;20499;-92
2023/02/19 05:19:14;;;;;;;2.10;1.10;;;;;;;12.52;59.88;99757.19;4458131;32;20201;-90
2023/02/19 05:21:39;;;;;;;2.62;1.05;;;;;;;12.64;59.88;99757.63;4457920;32;20120;-92
2023/02/19 05:24:05;;;;;;;1.52;0.85;;;;;;;12.68;59.89;99760.03;4469565;32;20089;-92
2023/02/19 05:26:31;;;;;;;1.25;0.80;;;;;;;12.67;59.89;99758.34;4464078;32;20372;-92
2023/02/19 05:28:56;;;;;;;1.42;0.70;;;;;;;12.55;59.88;99759.69;4470499;32;20151;-88
2023/02/19 05:31:22;;;;;;;2.03;0.90;;;;;;;12.60;59.88;99754.28;4473454;31;20123;-89
2023/02/19 05:33:51;;;;;;;1.58;1.02;;;;;;;12.55;59.88;99746.62;4469756;32;20136;-90
2023/02/19 05:36:18;;;;;;;4.55;1.25;;;;;;;12.59;59.88;99743.00;4468292;31;20126;-92
2023/02/19 05:38:43;;;;;;;1.40;0.82;;;;;;;12.74;59.89;99748.47;4472287;32;20104;-90
2023/02/19 05:41:10;;;;;;;2.22;1.10;;;;;;;12.65;59.88;99749.72;4457621;32;20139;-90
2023/02/19 05:43:37;;;;;;;2.30;1.15;;;;;;;12.64;59.88;99741.94;4485030;31;20478;-91
2023/02/19 05:46:02;;;;;;;2.83;1.10;;;;;;;12.65;59.88;99747.09;4476723;32;20497;-89
2023/02/19 05:48:27;;;;;;;2.47;1.17;;;;;;;12.82;59.90;99756.87;4474671;31;20210;-90
2023/02/19 05:50:53;;;;;;;2.42;1.15;;;;;;;12.62;59.88;99752.47;4486062;31;20120;-90
2023/02/19 05:53:18;;;;;;;2.37;1.00;;;;;;;12.64;59.88;99750.63;4468935;32;20466;-89
2023/02/19 05:55:44;;;;;;;1.85;1.00;;;;;;;12.73;59.89;99750.25;4470252;32;20148;-89
2023/02/19 05:58:09;;;;;;;1.73;1.10;;;;;;;12.59;59.88;99763.88;4484856;31;20437;-90
2023/02/19 06:00:35;;;;;;;3.35;1.30;;;;;;;12.72;59.88;99765.97;4470155;32;20112;-90
2023/02/19 06:03:00;;;;;;;2.08;1.20;;;;;;;12.70;59.88;99760.81;4468201;32;20480;-90
2023/02/19 06:05:26;;;;;;;3.33;1.27;;;;;;;12.71;59.88;99765.13;4457369;32;20120;-90
2023/02/19 06:07:51;;;;;;;2.28;1.02;;;;;;;12.63;59.88;99762.00;4457424;32;20104;-89
2023/02/19 06:10:17;;;;;;;3.78;1.65;;;;;;;12.46;59.87;99757.44;4456838;32;20128;-87
2023/02/19 06:12:42;;;;;;;2.03;1.05;;;;;;;12.64;59.88;99762.84;4482873;32;20092;-88
2023/02/19 06:15:08;;;;;;;1.10;0.70;;;;;;;12.77;59.89;99764.03;4469769;32;20135;-90
2023/02/19 06:17:33;;;;;;;2.22;0.90;;;;;;;12.67;59.89;99758.34;4483573;31;20108;-90
2023/02/19 06:19:59;;;;;;;2.37;1.02;;;;;;;12.88;59.90;99767.91;4469676;32;20152;-91
2023/02/19 06:22:25;;;;;;;1.83;1.10;;;;;;;12.89;59.90;99751.31;4470081;32;20127;-91
2023/02/19 06:24:50;;;;;;;0.90;0.62;;;;;;;12.73;59.89;99754.63;4478651;31;20125;-89
2023/02/19 06:27:15;;;;;;;1.20;1.05;;;;;;;12.79;59.89;99749.16;4486408;31;20099;-90
2023/02/19 06:29:41;;;;;;;1.17;0.77;;;;;;;12.80;59.89;99745.66;4474701;31;20147;-91
2023/02/19 06:32:06;;;;;;;1.45;0.77;;;;;;;12.94;59.90;99745.91;4469496;31;20156;-90
2023/02/19 06:34:32;;;;;;;2.53;0.98;;;;;;;12.99;59.90;99741.31;4472887;31;20124;-89
2023/02/19 06:36:57;;;;;;;1.35;0.70;;;;;;;12.91;59.89;99744.28;4469856;32;20131;-90
2023/02/19 06:39:23;;;;;;;1.05;0.82;;;;;;;12.90;59.90;99742.56;4465454;31;20115;-90
2023/02/19 06:41:49;;;;;;;1.73;0.98;;;;;;;13.00;59.90;99743.03;4485612;31;20196;-89
2023/02/19 06:44:14;;;;;;;1.08;0.70;;;;;;;13.05;59.91;99733.25;4485849;31;20125;-89
2023/02/19 06:46:40;;;;;;;2.40;1.00;;;;;;;13.21;59.91;99728.22;4484968;31;20159;-88
2023/02/19 06:49:05;;;;;;;2.95;1.10;;;;;;;13.11;59.90;99729.53;4471845;31;20115;-90
2023/02/19 06:51:31;;;;;;;1.62;1.00;;;;;;;13.17;59.91;99727.53;4471425;32;20152;-88
2023/02/19 06:53:57;;;;;;;1.08;0.90;;;;;;;13.12;59.91;99728.59;4482075;32;20096;-87
2023/02/19 06:56:23;;;;;;;1.90;1.08;;;;;;;13.15;59.91;99728.47;4481653;32;20096;-87
2023/02/19 06:58:49;;;;;;;4.12;1.73;;;;;;;13.23;59.91;99726.41;4481838;32;20112;-89
2023/02/19 07:01:14;;;;;;;2.42;1.37;;;;;;;13.17;59.91;99722.28;4471318;31;20093;-90
2023/02/19 07:03:40;;;;;;;2.55;2.00;;;;;;;13.28;59.92;99724.47;4468682;32;20123;-91
2023/02/19 07:06:05;;;;;;;5.00;2.40;;;;;;;13.19;59.92;99730.91;4469745;31;20161;-90
2023/02/19 07:08:31;;;;;;;3.72;2.33;;;;;;;13.17;59.91;99730.12;4465653;32;20130;-89
2023/02/19 07:10:57;;;;;;;3.22;1.77;;;;;;;13.31;59.92;99721.72;4494509;31;20108;-91
2023/02/19 07:13:23;;;;;;;3.75;1.98;;;;;;;13.37;59.92;99731.91;4465763;31;20137;-90
2023/02/19 07:15:48;;;;;;;2.90;1.17;;;;;;;13.33;59.92;99727.72;4484503;31;20393;-89
2023/02/19 07:18:14;;;;;;;2.95;1.10;;;;;;;13.16;59.91;99736.25;4462768;32;20096;-90
2023/02/19 07:20:39;;;;;;;1.20;0.75;;;;;;;13.18;59.91;99736.22;4469885;31;20378;-88
2023/02/19 07:23:04;;;;;;;1.40;0.60;;;;;;;13.16;59.91;99736.25;4479883;32;20210;-89
2023/02/19 07:25:30;;;;;;;1.20;0.80;;;;;;;13.12;59.91;99732.06;4458187;31;20108;-90
2023/02/19 07:27:56;;;;;;;1.10;0.70;;;;;;;13.12;59.91;99732.06;4476415;32;20475;-89
2023/02/19 07:30:21;;;;;;;1.95;1.27;;;;;;;13.11;59.92;99732.97;4471494;31;20100;-90
2023/02/19 07:32:46;;;;;;;2.03;0.70;;;;;;;13.17;59.91;99729.25;4465938;31;20131;-92
2023/02/19 07:35:12;;;;;;;1.50;0.70;;;;;;;13.19;59.92;99722.22;4471643;31;20134;-90
2023/02/19 07:37:37;;;;;;;1.27;0.82;;;;;;;13.16;59.91;99724.94;4465290;31;20112;-89
2023/02/19 07:40:03;;;;;;;1.27;0.88;;;;;;;13.18;59.92;99716.16;4475585;31;20149;-89
2023/02/19 07:42:28;;;;;;;1.52;0.82;;;;;;;13.33;59.92;99714.66;4484917;32;20132;-88
2023/02/19 07:44:54;;;;;;;1.83;0.95;;;;;;;13.29;59.92;99709.63;4484552;31;20120;-90
2023/02/19 07:47:19;;;;;;;1.75;1.08;;;;;;;13.23;59.91;99717.72;4471454;32;20437;-92
2023/02/19 07:49:45;;;;;;;2.25;1.27;;;;;;;13.20;59.92;99698.63;4469613;31;20579;-91
2023/02/19 07:52:10;;;;;;;2.17;0.90;;;;;;;13.24;59.91;99712.41;4465665;31;20437;-90
2023/02/19 07:54:35;;;;;;;1.65;1.08;;;;;;;13.35;59.92;99719.81;4490871;31;20139;-90
2023/02/19 07:57:01;;;;;;;1.60;1.00;;;;;;;13.25;59.91;99721.09;4471147;32;20101;-89
2023/02/19 07:59:26;;;;;;;1.08;0.80;;;;;;;13.08;59.90;99733.13;4472738;31;20136;-87
2023/02/19 08:04:36;;;;;;;1.80;0.93;;;;;;;13.17;59.91;99761.50;4486298;31;20114;-89
2023/02/19 08:07:01;;;;;;;1.73;0.98;;;;;;;12.90;59.90;99754.78;4485468;31;20096;-89
2023/02/19 08:09:27;;;;;;;2.60;1.20;;;;;;;12.70;59.88;99768.66;4482097;32;20156;-88
2023/02/19 08:14:36;;;;;;;2.05;1.10;;;;;;;12.73;59.89;99771.13;4473290;32;20168;-89
2023/02/19 08:17:02;;;;;;;2.42;1.37;;;;;;;12.80;59.89;99777.00;4467902;31;20112;-88
2023/02/19 08:19:27;;;;;;;2.42;1.05;;;;;;;12.92;59.90;99784.31;4476246;31;20126;-87
2023/02/19 08:21:53;;;;;;;2.47;1.00;;;;;;;12.84;59.89;99786.41;4486360;31;20361;-87
2023/02/19 08:24:18;;;;;;;1.73;1.30;;;;;;;12.86;59.89;99797.63;4473496;32;20453;-88
2023/02/19 08:26:43;;;;;;;2.55;1.48;;;;;;;12.63;59.88;99788.09;4475976;31;20104;-88
2023/02/19 08:29:09;;;;;;;2.95;1.30;;;;;;;12.87;59.89;99786.25;4483852;32;20128;-89
2023/02/19 08:31:34;;;;;;;8.75;2.10;;;;;;;13.08;59.90;99782.78;4470978;32;20100;-89
2023/02/19 08:34:00;;;;;;;7.45;2.85;;;;;;;13.11;59.90;99779.19;4483900;32;20460;-89
2023/02/19 08:36:26;;;;;;;11.15;5.47;;;;;;;13.34;59.92;99780.84;4484153;32;20118;-89
2023/02/19 08:38:51;;;;;;;8.15;4.93;;;;;;;13.34;59.92;99775.62;4463556;31;20448;-88
2023/02/19 08:41:17;;;;;;;9.45;5.30;;;;;;;13.37;59.92;99771.09;4476075;31;20127;-88
2023/02/19 08:43:42;;;;;;;12.85;6.85;;;;;;;13.45;59.92;99766.38;4476408;31;20382;-88
2023/02/19 08:46:08;;;;;;;13.95;7.47;;;;;;;13.60;59.93;99770.13;4488777;31;20145;-89
2023/02/19 08:48:34;;;;;;;14.70;7.95;;;;;;;13.76;59.94;99771.13;4483820;32;20106;-89
2023/02/19 08:51:05;;;;;;;16.58;7.30;;;;;;;13.52;59.93;99778.31;4484935;31;20088;-88
2023/02/19 08:53:31;;;;;;;14.57;8.50;;;;;;;13.48;59.93;99774.09;4477268;31;20200;-89
2023/02/19 08:55:56;;;;;;;12.57;7.78;;;;;;;13.57;59.93;99764.16;4473140;31;20116;-89
2023/02/19 08:58:25;;;;;;;16.10;9.07;;;;;;;13.62;59.93;99764.81;4485150;31;20148;-89
2023/02/19 09:00:50;;;;;;;19.27;9.35;;;;;;;13.76;59.94;99762.44;4484096;32;20084;-88
2023/02/19 09:03:16;;;;;;;22.13;9.45;;;;;;;13.33;59.92;99763.47;4485614;31;20125;-87
2023/02/19 09:05:41;;;;;;;15.77;9.40;;;;;;;13.43;59.93;99770.00;4488859;31;20108;-88
2023/02/19 09:08:07;;;;;;;18.25;9.98;;;;;;;13.56;59.93;99778.16;4484480;31;20103;-88
2023/02/19 09:10:32;;;;;;;16.50;9.50;;;;;;;13.61;59.93;99758.72;4478164;32;20096;-88
2023/02/19 09:12:58;;;;;;;16.15;9.25;;;;;;;13.45;59.93;99773.37;4483893;31;20204;-88
2023/02/19 09:15:23;;;;;;;18.90;9.57;;;;;;;13.49;59.93;99761.91;4483811;32;20150;-88
2023/02/19 09:17:52;;;;;;;17.35;8.85;;;;;;;13.51;59.93;99757.44;4483517;32;20119;-89
2023/02/19 09:20:17;;;;;;;17.20;8.93;;;;;;;13.48;59.92;99770.63;4485129;31;20107;-89
2023/02/19 09:22:43;;;;;;;19.23;9.05;;;;;;;13.51;59.93;99768.75;4483279;32;20088;-88
2023/02/19 09:25:08;;;;;;;15.90;9.88;;;;;;;13.39;59.92;99773.66;4480725;31;20126;-88
2023/02/19 09:27:34;;;;;;;16.73;9.88;;;;;;;13.34;59.92;99771.25;4474482;31;20084;-88
2023/02/19 09:29:59;;;;;;;20.15;10.13;;;;;;;13.43;59.93;99772.59;4488916;31;20388;-88
2023/02/19 09:32:25;;;;;;;19.65;9.73;;;;;;;13.42;59.93;99757.84;4485437;31;20103;-88
2023/02/19 09:34:50;;;;;;;22.30;11.35;;;;;;;13.36;59.92;99760.72;4486091;31;20096;-88
2023/02/19 09:37:16;;;;;;;28.25;14.57;;;;;;;13.44;59.93;99758.63;4485807;31;20083;-88
2023/02/19 09:39:41;;;;;;;22.62;13.02;;;;;;;13.59;59.93;99763.19;4489392;31;20437;-88
2023/02/19 09:42:16;;;;;;;24.70;13.75;;;;;;;13.46;59.93;99765.47;4472394;32;20437;-88
2023/02/19 09:44:46;;;;;;;22.23;12.65;;;;;;;13.52;59.93;99759.16;4473988;31;224343;-89
2023/02/19 09:47:19;;;;;;;21.70;12.23;;;;;;;13.58;59.93;99753.62;4483316;32;20185;-88
2023/02/19 09:49:50;;;;;;;22.70;12.20;;;;;;;13.76;59.94;99763.28;4483381;31;20129;-88
2023/02/19 09:52:25;;;;;;;23.60;12.32;;;;;;;13.75;59.94;99752.91;4483369;32;20108;-88
2023/02/19 09:54:56;;;;;;;20.05;11.55;;;;;;;13.79;59.94;99750.06;4484331;31;20562;-87
2023/02/19 09:57:22;;;;;;;20.83;12.15;;;;;;;13.93;59.94;99754.66;4464043;31;20088;-88
2023/02/19 09:59:50;;;;;;;23.12;11.77;;;;;;;14.09;59.96;99747.81;4483295;32;20096;-88
2023/02/19 10:02:23;;;;;;;22.10;12.37;;;;;;;14.06;59.95;99742.72;4470263;32;20100;-89
2023/02/19 10:04:50;;;;;;;19.50;11.57;;;;;;;14.06;59.95;99734.87;4469431;32;20213;-89
2023/02/19 10:07:23;;;;;;;18.62;10.35;;;;;;;14.28;59.97;99724.25;4480325;31;20118;-88
2023/02/19 10:10:11;;;;;;;20.02;10.90;;;;;;;14.55;59.98;99727.34;4476171;31;20093;-88
2023/02/19 10:12:38;;;;;;;15.00;7.90;;;;;;;14.59;59.98;99728.88;4483920;31;20406;-88
2023/02/19 10:15:33;;;;;;;14.57;7.32;;;;;;;14.86;59.99;99721.41;4482519;32;20165;-92
2023/02/19 10:17:59;;;;;;;13.18;7.50;;;;;;;14.88;60.00;99716.94;4469019;32;20143;-89
2023/02/19 10:20:26;;;;;;;12.37;7.40;;;;;;;14.92;60.00;99704.56;4455603;32;20470;-85
2023/02/19 10:23:03;;;;;;;11.35;6.85;;;;;;;14.95;60.01;99705.25;4470471;32;20156;-88
2023/02/19 10:25:28;;;;;;;11.98;6.25;;;;;;;15.23;60.02;99701.22;4470545;31;20129;-88
2023/02/19 10:27:55;;;;;;;10.77;5.93;;;;;;;15.39;60.02;99696.87;4490252;31;20137;-89
2023/02/19 10:30:26;;;;;;;8.80;5.47;;;;;;;15.51;60.04;99690.13;4469643;32;20104;-91
2023/02/19 10:33:01;;;;;;;11.12;5.12;;;;;;;15.63;60.05;99686.88;4460158;32;20164;-90
2023/02/19 10:35:27;;;;;;;6.45;3.00;;;;;;;15.72;60.05;99678.50;4481232;31;20108;-90
2023/02/19 10:37:55;;;;;;;6.25;2.35;;;;;;;15.74;60.04;99681.03;4475008;32;20092;-88
2023/02/19 10:40:23;;;;;;;4.55;2.75;;;;;;;15.67;60.04;99667.41;4472836;31;20107;-91
2023/02/19 10:42:51;;;;;;;6.20;3.40;;;;;;;15.79;60.05;99665.87;4480687;32;20100;-93
2023/02/19 10:45:22;;;;;;;6.07;2.83;;;;;;;15.89;60.05;99659.22;4469456;32;20112;-91
2023/02/19 10:47:47;;;;;;;5.68;2.85;;;;;;;15.70;60.04;99666.41;4465367;31;20816;-91
2023/02/19 10:50:46;;;;;;;5.43;3.15;;;;;;;15.65;60.04;99664.03;4466685;31;20104;-92
2023/02/19 10:53:24;;;;;;;4.47;2.80;;;;;;;15.74;60.05;99657.44;4473774;31;20104;-91
2023/02/19 10:56:07;;;;;;;4.18;2.37;;;;;;;15.81;60.05;99656.16;4463249;32;20158;-93
2023/02/19 10:58:36;;;;;;;4.60;2.60;;;;;;;15.96;60.06;99648.28;4472238;32;20148;-92
2023/02/19 11:01:18;;;;;;;5.37;2.95;;;;;;;15.98;60.05;99645.56;4471639;31;20171;-91
2023/02/19 11:03:47;;;;;;;6.47;3.00;;;;;;;16.27;60.08;99642.16;4468467;31;20120;-93
2023/02/19 11:06:13;;;;;;;4.95;2.45;;;;;;;16.05;60.06;99651.31;4486828;31;20095;-91
2023/02/19 11:08:47;;;;;;;3.78;1.85;;;;;;;16.12;60.06;99643.03;4468156;31;20119;-90
2023/02/19 11:11:38;;;;;;;3.47;1.67;;;;;;;16.31;60.07;99631.47;4484479;31;20152;-91
2023/02/19 11:14:18;;;;;;;2.67;1.48;;;;;;;16.34;60.08;99626.91;4483915;31;20104;-90
2023/02/19 11:16:50;;;;;;;1.75;1.00;;;;;;;16.61;60.09;99632.34;4480791;31;20164;-92
2023/02/19 11:19:38;;;;;;;2.85;1.10;;;;;;;16.81;60.10;99616.28;4486946;31;20085;-91
2023/02/19 11:22:31;;;;;;;1.65;0.90;;;;;;;16.95;60.11;99630.34;4471449;32;20153;-89
2023/02/19 11:25:16;;;;;;;1.62;1.10;;;;;;;16.81;60.10;99611.00;4493632;31;20135;-91
2023/02/19 11:27:57;;;;;;;1.85;1.05;;;;;;;16.82;60.10;99635.50;4484853;32;20079;-90
2023/02/19 11:30:28;;;;;;;1.58;0.90;;;;;;;16.72;60.10;99624.69;4484205;32;20155;-90
2023/02/19 11:32:54;;;;;;;8.48;3.20;;;;;;;16.38;60.07;99640.69;4484716;31;20119;-93
2023/02/19 11:35:21;;;;;;;7.57;3.30;;;;;;;16.16;60.07;99620.91;4471248;32;20469;-91
2023/02/19 11:37:55;;;;;;;6.40;3.05;;;;;;;16.09;60.07;99621.31;4481699;31;20126;-92
2023/02/19 11:40:23;;;;;;;1.85;0.90;;;;;;;16.19;60.07;99617.25;4471329;32;20179;-91
2023/02/19 11:43:17;;;;;;;3.08;1.52;;;;;;;16.42;60.08;99614.16;4470777;31;20118;-89
2023/02/19 11:46:18;;;;;;;4.22;1.60;;;;;;;16.37;60.08;99602.25;4484762;31;20184;-93
2023/02/19 11:48:49;;;;;;;2.35;1.25;;;;;;;16.28;60.07;99601.81;4477429;32;20108;-92
2023/02/19 11:51:20;;;;;;;2.33;1.30;;;;;;;16.51;60.09;99605.72;4471146;32;20107;-93
2023/02/19 11:53:47;;;;;;;2.58;1.35;;;;;;;16.82;60.10;99602.19;4485507;31;20761;-93
2023/02/19 11:56:23;;;;;;;4.22;1.55;;;;;;;17.06;60.11;99594.59;4468904;31;20117;-94
2023/02/19 11:59:07;;;;;;;3.35;1.60;;;;;;;16.96;60.11;99598.72;4464918;32;20206;-92
2023/02/19 12:01:45;;;;;;;5.75;1.50;;;;;;;16.84;60.11;99583.69;4486027;31;20081;-90
2023/02/19 12:04:43;;;;;;;2.62;1.30;;;;;;;16.49;60.09;99572.59;4487367;31;20085;-94
2023/02/19 12:07:19;;;;;;;3.10;1.30;;;;;;;16.13;60.07;99571.19;4480926;32;20102;-92